Time;durP1;ratioP1;P1;durP2;ratioP2;P2;SDS_P1;SDS_P2;PMS_P1;PMS_P2;Temp;Humidity;BMP_temperature;BMP_pressure;BME280_temperature;BME280_humidity;BME280_pressure;Samples;Min_cycle;Max_cycle;Signal;HPM_P1;HPM_P2
2021/06/28 00:00:37;;;;;;;9.80;7.73;;;20.90;1.00;;;;;;5072394;28;20476;-60
2021/06/28 00:03:03;;;;;;;8.60;7.90;;;20.80;1.00;;;;;;5071709;28;20481;-58
2021/06/28 00:05:29;;;;;;;8.27;7.63;;;20.80;1.00;;;;;;5071788;28;20480;-59
2021/06/28 00:07:55;;;;;;;8.83;8.13;;;20.70;1.00;;;;;;5070555;28;20196;-56
2021/06/28 00:10:24;;;;;;;8.10;7.30;;;20.70;1.00;;;;;;5070766;28;20274;-57
2021/06/28 00:12:51;;;;;;;7.77;7.17;;;20.60;1.00;;;;;;5070869;28;20870;-57
2021/06/28 00:15:20;;;;;;;10.30;8.50;;;20.60;1.00;;;;;;5070868;28;20445;-57
2021/06/28 00:17:46;;;;;;;8.30;7.60;;;20.50;1.00;;;;;;5068657;28;20866;-57
2021/06/28 00:20:13;;;;;;;8.73;6.97;;;20.50;1.00;;;;;;5071419;28;20520;-59
2021/06/28 00:22:40;;;;;;;8.47;7.60;;;20.50;1.00;;;;;;5068214;28;20955;-56
2021/06/28 00:25:11;;;;;;;7.47;6.80;;;20.50;1.00;;;;;;5069541;28;20517;-58
2021/06/28 00:27:38;;;;;;;9.07;8.17;;;20.40;1.00;;;;;;5071858;28;20445;-57
2021/06/28 00:30:09;;;;;;;8.50;7.60;;;20.40;1.00;;;;;;5070580;28;20539;-58
2021/06/28 00:32:35;;;;;;;8.23;7.63;;;20.40;1.00;;;;;;5071025;28;20821;-57
2021/06/28 00:35:01;;;;;;;8.63;7.83;;;20.30;1.00;;;;;;5069843;28;20465;-56
2021/06/28 00:37:27;;;;;;;8.87;8.13;;;20.30;1.00;;;;;;5069882;28;20187;-58
2021/06/28 00:39:52;;;;;;;8.80;8.00;;;20.30;1.00;;;;;;5069934;28;20596;-57
2021/06/28 00:42:18;;;;;;;7.77;7.17;;;20.30;1.00;;;;;;5071398;28;20191;-57
2021/06/28 00:44:44;;;;;;;8.83;8.03;;;20.30;1.00;;;;;;5070838;28;20211;-57
2021/06/28 00:47:09;;;;;;;7.93;7.23;;;20.20;1.00;;;;;;5070401;28;20215;-57
2021/06/28 00:49:35;;;;;;;8.50;7.80;;;20.20;1.00;;;;;;5069293;28;20187;-57
2021/06/28 00:52:01;;;;;;;8.97;8.27;;;20.20;1.00;;;;;;5070181;28;20253;-57
2021/06/28 00:54:27;;;;;;;8.37;7.60;;;20.10;1.00;;;;;;5070792;28;20857;-58
2021/06/28 00:56:52;;;;;;;7.83;7.07;;;20.20;1.00;;;;;;5071233;28;20179;-57
2021/06/28 00:59:18;;;;;;;8.73;7.70;;;20.20;1.00;;;;;;5063406;28;20223;-57
2021/06/28 01:01:44;;;;;;;9.90;7.97;;;20.20;1.00;;;;;;5071217;28;20533;-58
2021/06/28 01:04:10;;;;;;;8.20;7.40;;;20.20;1.00;;;;;;5070929;28;20186;-56
2021/06/28 01:06:36;;;;;;;7.70;7.10;;;20.20;1.00;;;;;;5070120;28;20464;-58
2021/06/28 01:09:02;;;;;;;7.70;7.10;;;20.40;1.00;;;;;;5070604;28;20641;-56
2021/06/28 01:11:28;;;;;;;8.00;7.40;;;20.40;1.00;;;;;;5070109;28;20266;-57
2021/06/28 01:13:54;;;;;;;7.83;7.13;;;20.30;1.00;;;;;;5069196;28;20528;-57
2021/06/28 01:16:20;;;;;;;9.20;8.37;;;20.40;1.00;;;;;;5068592;28;20218;-58
2021/06/28 01:18:45;;;;;;;7.80;7.10;;;20.40;1.00;;;;;;5052710;28;20179;-57
2021/06/28 01:21:12;;;;;;;7.67;7.07;;;20.50;1.00;;;;;;5070671;28;20183;-57
2021/06/28 01:23:38;;;;;;;8.17;7.47;;;20.50;1.00;;;;;;5068903;28;20187;-57
2021/06/28 01:26:06;;;;;;;8.43;7.73;;;20.40;1.00;;;;;;5069856;28;20469;-57
2021/06/28 01:28:32;;;;;;;9.00;8.10;;;20.40;1.00;;;;;;5069902;28;20485;-58
2021/06/28 01:30:59;;;;;;;8.53;7.73;;;20.30;1.00;;;;;;5068618;28;20842;-57
2021/06/28 01:33:26;;;;;;;7.67;6.97;;;20.20;1.00;;;;;;5067945;28;20210;-57
2021/06/28 01:35:52;;;;;;;9.27;8.47;;;20.30;1.00;;;;;;5067230;28;20456;-58
2021/06/28 01:38:17;;;;;;;8.10;7.40;;;20.30;1.00;;;;;;5070120;28;20436;-57
2021/06/28 01:40:43;;;;;;;9.07;8.07;;;20.30;1.00;;;;;;5070197;28;20641;-58
2021/06/28 01:43:11;;;;;;;8.97;8.00;;;20.30;1.00;;;;;;5070230;28;20622;-57
2021/06/28 01:45:37;;;;;;;8.20;7.50;;;20.20;1.00;;;;;;5067290;28;20340;-58
2021/06/28 01:48:03;;;;;;;9.27;8.53;;;20.20;1.00;;;;;;5066448;28;20420;-57
2021/06/28 01:50:31;;;;;;;8.87;8.17;;;20.10;1.00;;;;;;5069828;28;20427;-57
2021/06/28 01:52:57;;;;;;;8.10;7.40;;;20.00;1.00;;;;;;5068341;28;20959;-58
2021/06/28 01:55:22;;;;;;;8.73;8.03;;;20.00;1.00;;;;;;5069208;28;20408;-57
2021/06/28 01:57:56;;;;;;;7.70;7.10;;;20.10;1.00;;;;;;5070158;28;20532;-58
2021/06/28 02:00:25;;;;;;;8.80;7.80;;;20.10;1.00;;;;;;5070553;28;20221;-57
2021/06/28 02:03:03;;;;;;;9.10;8.30;;;20.10;1.00;;;;;;5069880;28;20433;-58
2021/06/28 02:05:35;;;;;;;8.47;7.77;;;20.10;1.00;;;;;;5068673;28;20449;-57
2021/06/28 02:08:03;;;;;;;8.57;7.87;;;20.10;1.00;;;;;;5069769;28;20445;-58
2021/06/28 02:10:28;;;;;;;12.13;8.70;;;20.10;1.00;;;;;;5068235;28;20475;-57
2021/06/28 02:12:54;;;;;;;8.73;7.90;;;20.10;1.00;;;;;;5068536;28;20438;-59
2021/06/28 02:15:21;;;;;;;11.73;7.43;;;20.10;1.00;;;;;;5067940;28;20186;-57
2021/06/28 02:17:47;;;;;;;8.00;7.30;;;20.10;1.00;;;;;;5067055;28;20179;-58
2021/06/28 02:20:12;;;;;;;9.10;8.40;;;20.10;1.00;;;;;;5070037;28;20514;-58
2021/06/28 02:22:38;;;;;;;8.87;8.07;;;20.00;1.00;;;;;;5069874;28;20479;-57
2021/06/28 02:25:06;;;;;;;9.30;8.40;;;20.10;1.00;;;;;;5069674;28;20187;-58
2021/06/28 02:27:32;;;;;;;8.60;8.00;;;20.10;1.00;;;;;;5065461;28;20473;-57
2021/06/28 02:29:58;;;;;;;9.17;8.33;;;20.10;1.00;;;;;;5065975;28;20473;-58
2021/06/28 02:32:23;;;;;;;9.10;8.30;;;20.10;1.00;;;;;;5069114;28;20681;-57
2021/06/28 02:34:49;;;;;;;8.77;8.10;;;20.20;1.00;;;;;;5069610;28;20183;-58
2021/06/28 02:37:14;;;;;;;9.83;8.90;;;20.10;1.00;;;;;;5069087;28;20641;-59
2021/06/28 02:39:40;;;;;;;8.70;8.10;;;20.10;1.00;;;;;;5068965;28;20175;-57
2021/06/28 02:42:06;;;;;;;8.17;7.40;;;20.10;1.00;;;;;;5069630;28;20222;-57
2021/06/28 02:44:31;;;;;;;9.40;8.60;;;20.10;1.00;;;;;;5069252;28;20724;-57
2021/06/28 02:46:57;;;;;;;8.90;8.20;;;20.10;1.00;;;;;;5068443;28;20461;-56
2021/06/28 02:49:22;;;;;;;9.13;8.33;;;20.10;1.00;;;;;;5067078;28;20221;-56
2021/06/28 02:51:48;;;;;;;9.40;8.60;;;20.10;1.00;;;;;;5069635;28;20731;-57
2021/06/28 02:54:14;;;;;;;9.57;8.77;;;20.10;1.00;;;;;;5069206;28;20180;-57
2021/06/28 02:56:39;;;;;;;9.37;8.53;;;20.10;1.00;;;;;;5069425;28;20184;-57
2021/06/28 02:59:06;;;;;;;10.23;8.43;;;20.10;1.00;;;;;;5066057;28;20194;-57
2021/06/28 03:01:32;;;;;;;9.13;8.33;;;20.20;1.00;;;;;;5066703;28;20198;-57
2021/06/28 03:03:58;;;;;;;9.20;8.27;;;20.10;1.00;;;;;;5068864;28;20441;-57
2021/06/28 03:06:24;;;;;;;9.30;8.60;;;20.10;1.00;;;;;;5068947;28;20700;-57
2021/06/28 03:08:50;;;;;;;9.50;8.80;;;20.00;1.00;;;;;;5069593;28;20265;-56
2021/06/28 03:11:18;;;;;;;9.87;9.07;;;20.10;1.00;;;;;;5068848;28;20445;-57
2021/06/28 03:13:44;;;;;;;9.40;8.47;;;20.10;1.00;;;;;;5069512;28;20433;-58
2021/06/28 03:16:10;;;;;;;8.60;7.90;;;20.10;1.00;;;;;;5067205;28;20453;-57
2021/06/28 03:18:36;;;;;;;9.50;8.70;;;20.10;1.00;;;;;;5072184;28;20489;-57
2021/06/28 03:21:04;;;;;;;9.70;8.90;;;20.10;1.00;;;;;;5072490;28;20265;-57
2021/06/28 03:23:30;;;;;;;9.77;8.77;;;20.10;1.00;;;;;;5070963;28;20942;-57
2021/06/28 03:25:56;;;;;;;8.40;7.53;;;20.10;1.00;;;;;;5072416;28;20461;-56
2021/06/28 03:28:22;;;;;;;9.20;8.40;;;20.10;1.00;;;;;;5068767;28;20175;-57
2021/06/28 03:30:48;;;;;;;9.20;8.40;;;20.10;1.00;;;;;;5072888;28;20511;-57
2021/06/28 03:33:13;;;;;;;9.37;8.57;;;20.20;1.00;;;;;;5072573;28;20182;-59
2021/06/28 03:35:39;;;;;;;8.80;8.10;;;20.30;1.00;;;;;;5070292;28;20811;-57
2021/06/28 03:38:05;;;;;;;8.77;8.00;;;22.50;1.00;;;;;;5072415;28;20187;-57
2021/06/28 03:40:32;;;;;;;9.33;8.43;;;20.40;1.00;;;;;;5072528;28;20522;-58
2021/06/28 03:43:00;;;;;;;9.37;8.47;;;20.50;1.00;;;;;;5072404;28;20452;-57
2021/06/28 03:45:26;;;;;;;9.60;8.90;;;20.50;1.00;;;;;;5066702;28;20453;-58
2021/06/28 03:47:51;;;;;;;9.10;8.27;;;20.70;1.00;;;;;;5068674;28;20450;-58
2021/06/28 03:50:17;;;;;;;8.80;8.10;;;20.70;1.00;;;;;;5072066;28;20179;-57
2021/06/28 03:52:43;;;;;;;10.00;9.10;;;20.70;1.00;;;;;;5071672;28;20233;-56
2021/06/28 03:55:09;;;;;;;10.27;9.30;;;20.80;1.00;;;;;;5071587;28;20232;-57
2021/06/28 03:57:36;;;;;;;10.20;9.40;;;20.80;1.00;;;;;;5071978;28;20187;-57
2021/06/28 04:00:07;;;;;;;10.50;9.60;;;20.80;1.00;;;;;;5072106;28;20433;-58
2021/06/28 04:02:36;;;;;;;9.70;8.90;;;20.80;1.00;;;;;;5071852;28;20452;-58
2021/06/28 04:05:03;;;;;;;10.27;9.47;;;20.70;1.00;;;;;;5072047;28;20436;-58
2021/06/28 04:07:29;;;;;;;9.47;8.70;;;20.70;1.00;;;;;;5071317;28;20547;-56
2021/06/28 04:09:54;;;;;;;10.10;8.70;;;20.70;1.00;;;;;;5071643;28;20927;-57
2021/06/28 04:12:20;;;;;;;9.67;8.87;;;20.70;1.00;;;;;;5071810;28;20437;-56
2021/06/28 04:14:45;;;;;;;9.13;8.40;;;20.80;1.00;;;;;;5071241;28;20183;-60
2021/06/28 04:17:11;;;;;;;10.37;9.47;;;20.70;1.00;;;;;;5071811;28;20218;-56
2021/06/28 04:19:36;;;;;;;10.27;9.40;;;20.90;1.00;;;;;;5071221;28;20545;-56
2021/06/28 04:22:02;;;;;;;11.23;10.13;;;20.90;1.00;;;;;;5070610;28;20234;-57
2021/06/28 04:24:28;;;;;;;10.10;9.30;;;20.90;1.00;;;;;;5071582;28;20518;-59
2021/06/28 04:26:53;;;;;;;10.17;9.37;;;21.00;1.00;;;;;;5070502;28;20207;-57
2021/06/28 04:29:19;;;;;;;27.53;9.90;;;21.00;1.00;;;;;;5070931;28;20222;-57
2021/06/28 04:31:44;;;;;;;10.00;9.30;;;21.10;1.00;;;;;;5071096;28;20188;-60
2021/06/28 04:34:10;;;;;;;9.93;8.53;;;21.10;1.00;;;;;;5070096;28;20176;-59
2021/06/28 04:36:35;;;;;;;8.47;7.67;;;21.30;1.00;;;;;;5068944;28;20644;-57
2021/06/28 04:39:01;;;;;;;9.37;8.57;;;21.30;1.00;;;;;;5070484;28;20595;-59
2021/06/28 04:41:26;;;;;;;8.90;8.20;;;21.30;1.00;;;;;;5070599;28;20637;-58
2021/06/28 04:43:52;;;;;;;9.10;8.30;;;21.30;1.00;;;;;;5071280;28;20183;-58
2021/06/28 04:46:18;;;;;;;9.77;8.87;;;21.30;1.00;;;;;;5071159;28;20260;-59
2021/06/28 04:48:43;;;;;;;10.10;9.10;;;21.40;1.00;;;;;;5071097;28;20759;-58
2021/06/28 04:51:09;;;;;;;11.63;8.33;;;21.40;1.00;;;;;;5070975;28;20187;-58
2021/06/28 04:53:34;;;;;;;8.60;7.90;;;21.30;1.00;;;;;;5070701;28;20183;-57
2021/06/28 04:56:00;;;;;;;9.43;8.57;;;21.30;1.00;;;;;;5070503;28;20197;-59
2021/06/28 04:58:25;;;;;;;9.47;7.93;;;21.40;1.00;;;;;;5069491;28;20190;-59
2021/06/28 05:00:51;;;;;;;9.03;8.23;;;21.40;1.00;;;;;;5070748;28;20211;-57
2021/06/28 05:03:17;;;;;;;9.73;8.93;;;21.20;1.00;;;;;;5069718;28;20180;-60
2021/06/28 05:05:42;;;;;;;9.30;8.40;;;21.30;1.00;;;;;;5070265;28;20210;-58
2021/06/28 05:08:08;;;;;;;10.30;9.30;;;21.40;1.00;;;;;;5070577;28;20187;-59
2021/06/28 05:10:33;;;;;;;9.63;8.73;;;21.40;1.00;;;;;;5068132;28;20199;-58
2021/06/28 05:12:59;;;;;;;8.90;8.10;;;21.30;1.00;;;;;;5070618;28;20229;-59
2021/06/28 05:15:24;;;;;;;9.37;8.47;;;21.30;1.00;;;;;;5069591;28;20191;-57
2021/06/28 05:17:50;;;;;;;9.90;9.10;;;21.40;1.00;;;;;;5070126;28;20275;-59
2021/06/28 05:20:15;;;;;;;9.50;8.67;;;21.40;1.00;;;;;;5070124;28;20183;-57
2021/06/28 05:22:42;;;;;;;9.67;8.80;;;21.40;1.00;;;;;;5070193;28;20172;-58
2021/06/28 05:25:09;;;;;;;10.40;9.60;;;21.60;1.00;;;;;;5069950;28;20175;-57
2021/06/28 05:27:34;;;;;;;10.27;9.47;;;21.80;1.00;;;;;;5068971;28;20461;-59
2021/06/28 05:30:03;;;;;;;10.30;9.40;;;22.00;1.00;;;;;;5068395;28;21059;-58
2021/06/28 05:32:29;;;;;;;10.23;9.17;;;22.10;1.00;;;;;;5069584;28;20190;-58
2021/06/28 05:34:55;;;;;;;14.97;11.43;;;22.20;1.00;;;;;;5068803;28;20529;-58
2021/06/28 05:37:21;;;;;;;10.37;9.60;;;22.40;1.00;;;;;;5069844;28;20187;-60
2021/06/28 05:39:47;;;;;;;10.00;9.10;;;22.50;1.00;;;;;;5068432;28;20244;-59
2021/06/28 05:42:13;;;;;;;10.90;9.80;;;22.60;1.00;;;;;;5070139;28;20934;-58
2021/06/28 05:44:40;;;;;;;10.07;9.07;;;22.60;1.00;;;;;;5070096;28;20607;-58
2021/06/28 05:47:06;;;;;;;9.83;8.93;;;22.60;1.00;;;;;;5069709;28;20458;-59
2021/06/28 05:49:34;;;;;;;10.37;8.70;;;22.70;1.00;;;;;;5069640;28;20449;-57
2021/06/28 05:51:59;;;;;;;9.97;9.00;;;22.80;1.00;;;;;;5069040;28;20186;-59
2021/06/28 05:54:25;;;;;;;10.40;8.57;;;22.90;1.00;;;;;;5068473;28;20946;-58
2021/06/28 05:56:51;;;;;;;10.33;9.43;;;23.10;1.00;;;;;;5068371;28;20518;-57
2021/06/28 05:59:16;;;;;;;10.20;9.07;;;23.10;1.00;;;;;;5069575;28;20210;-61
2021/06/28 06:01:42;;;;;;;11.17;10.13;;;23.00;1.00;;;;;;5068849;28;20179;-58
2021/06/28 06:04:13;;;;;;;10.13;9.23;;;23.00;1.00;;;;;;5069942;28;20221;-59
2021/06/28 06:06:41;;;;;;;9.87;9.03;;;23.00;1.00;;;;;;5069303;28;20658;-58
2021/06/28 06:09:08;;;;;;;9.63;8.83;;;23.00;1.00;;;;;;5069294;28;20494;-60
2021/06/28 06:11:33;;;;;;;9.83;8.93;;;23.00;1.00;;;;;;5069871;28;20445;-57
2021/06/28 06:14:00;;;;;;;10.53;8.93;;;23.10;1.00;;;;;;5068531;28;20422;-58
2021/06/28 06:16:26;;;;;;;11.10;10.20;;;23.40;1.00;;;;;;5070047;28;20941;-60
2021/06/28 06:18:52;;;;;;;10.80;9.10;;;23.60;1.00;;;;;;5069863;28;20534;-58
2021/06/28 06:21:21;;;;;;;9.97;9.00;;;23.80;1.00;;;;;;5069201;28;20184;-59
2021/06/28 06:23:47;;;;;;;248.47;44.07;;;24.00;1.00;;;;;;5069506;28;20540;-57
2021/06/28 06:26:12;;;;;;;28.43;11.90;;;24.10;1.00;;;;;;5068671;28;20499;-59
2021/06/28 06:28:38;;;;;;;21.63;10.60;;;24.20;1.00;;;;;;5069342;28;20198;-59
2021/06/28 06:31:04;;;;;;;12.20;9.87;;;24.40;1.00;;;;;;5069740;28;20190;-58
2021/06/28 06:33:29;;;;;;;9.97;9.00;;;24.60;1.00;;;;;;5068163;28;20190;-60
2021/06/28 06:35:55;;;;;;;10.70;9.40;;;24.90;1.00;;;;;;5069661;28;20206;-58
2021/06/28 06:38:21;;;;;;;9.27;8.47;;;25.30;1.00;;;;;;5069505;28;20183;-58
2021/06/28 06:40:48;;;;;;;9.50;8.70;;;25.60;1.00;;;;;;5069627;28;20249;-59
2021/06/28 06:43:15;;;;;;;9.63;8.67;;;25.90;1.00;;;;;;5068599;28;20200;-59
2021/06/28 06:45:40;;;;;;;9.37;8.67;;;26.30;1.00;;;;;;5069717;28;20823;-59
2021/06/28 06:48:06;;;;;;;9.47;8.77;;;26.30;1.00;;;;;;5068930;28;20444;-59
2021/06/28 06:50:32;;;;;;;8.87;8.03;;;26.10;1.00;;;;;;5071531;28;20586;-59
2021/06/28 06:52:58;;;;;;;9.10;8.30;;;25.90;1.00;;;;;;5072720;28;20441;-59
2021/06/28 06:55:25;;;;;;;9.20;8.43;;;25.70;1.00;;;;;;5072912;28;20449;-58
2021/06/28 06:57:51;;;;;;;8.80;8.13;;;25.50;1.00;;;;;;5073216;28;20892;-61
2021/06/28 07:00:18;;;;;;;9.13;8.37;;;25.50;1.00;;;;;;5072720;28;20473;-59
2021/06/28 07:02:45;;;;;;;8.23;7.63;;;25.50;1.00;;;;;;5072911;28;20192;-60
2021/06/28 07:05:12;;;;;;;8.57;7.93;;;25.60;1.00;;;;;;5072363;28;20438;-59
2021/06/28 07:07:40;;;;;;;9.40;8.40;;;25.70;1.00;;;;;;5072742;28;20471;-58
2021/06/28 07:10:10;;;;;;;8.23;7.63;;;25.90;1.00;;;;;;5072949;28;20444;-59
2021/06/28 07:12:35;;;;;;;9.70;9.00;;;26.10;1.00;;;;;;5070929;28;20522;-59
2021/06/28 07:15:01;;;;;;;8.80;8.20;;;26.20;1.00;;;;;;5073375;28;20465;-59
2021/06/28 07:17:26;;;;;;;8.10;7.50;;;26.60;1.00;;;;;;5072781;28;20194;-59
2021/06/28 07:19:52;;;;;;;9.00;8.30;;;26.70;1.00;;;;;;5073124;28;20214;-60
2021/06/28 07:22:18;;;;;;;9.23;8.43;;;26.90;1.00;;;;;;5071987;28;20195;-58
2021/06/28 07:24:44;;;;;;;8.40;7.67;;;27.00;1.00;;;;;;5071907;28;20195;-61
2021/06/28 07:27:10;;;;;;;8.40;7.70;;;27.00;1.00;;;;;;5072604;28;20210;-59
2021/06/28 07:29:35;;;;;;;8.13;7.53;;;26.90;1.00;;;;;;5072100;28;20469;-60
2021/06/28 07:32:03;;;;;;;8.50;7.80;;;27.00;1.00;;;;;;5072813;28;20198;-59
2021/06/28 07:34:28;;;;;;;9.17;7.83;;;27.10;1.00;;;;;;5070863;28;20190;-58
2021/06/28 07:36:54;;;;;;;9.60;8.67;;;27.10;1.00;;;;;;5072406;28;20450;-60
2021/06/28 07:39:19;;;;;;;8.27;7.57;;;26.90;1.00;;;;;;5072084;28;20561;-59
2021/06/28 07:41:46;;;;;;;10.90;8.93;;;26.90;1.00;;;;;;5072308;28;20245;-59
2021/06/28 07:44:12;;;;;;;8.97;8.17;;;27.10;1.00;;;;;;5072825;28;20667;-58
2021/06/28 07:46:37;;;;;;;9.50;8.60;;;27.20;1.00;;;;;;5072375;28;20753;-58
2021/06/28 07:49:04;;;;;;;9.67;8.70;;;27.20;1.00;;;;;;5072260;28;20194;-58
2021/06/28 07:51:35;;;;;;;8.37;7.77;;;27.30;1.00;;;;;;5072084;28;20183;-61
2021/06/28 07:54:05;;;;;;;8.47;7.87;;;27.30;1.00;;;;;;5071946;28;20464;-59
2021/06/28 07:56:31;;;;;;;8.30;7.67;;;27.20;1.00;;;;;;5072252;28;20498;-59
2021/06/28 07:58:56;;;;;;;9.93;9.03;;;27.10;1.00;;;;;;5072260;28;20441;-58
2021/06/28 08:01:22;;;;;;;9.30;8.50;;;27.10;1.00;;;;;;5071085;28;20278;-59
2021/06/28 08:03:48;;;;;;;9.23;8.43;;;27.00;1.00;;;;;;5071962;28;20262;-60
2021/06/28 08:06:18;;;;;;;8.70;7.80;;;27.20;1.00;;;;;;5071351;28;20202;-58
2021/06/28 08:08:45;;;;;;;9.27;8.47;;;27.60;1.00;;;;;;5072050;28;20675;-60
2021/06/28 08:11:12;;;;;;;9.80;9.00;;;28.00;1.00;;;;;;5072082;28;20448;-60
2021/06/28 08:13:42;;;;;;;8.77;8.00;;;28.20;1.00;;;;;;5072317;28;20441;-59
2021/06/28 08:16:08;;;;;;;8.90;8.20;;;28.20;1.00;;;;;;5072199;28;20444;-59
2021/06/28 08:18:34;;;;;;;8.40;7.73;;;28.10;1.00;;;;;;5071620;28;20420;-60
2021/06/28 08:21:01;;;;;;;9.40;8.50;;;28.30;1.00;;;;;;5070246;28;20522;-58
2021/06/28 08:23:26;;;;;;;9.07;8.37;;;28.40;1.00;;;;;;5070405;28;20545;-60
2021/06/28 08:25:52;;;;;;;8.97;8.27;;;28.40;1.00;;;;;;5072170;28;20544;-60
2021/06/28 08:28:18;;;;;;;8.00;7.40;;;28.60;1.00;;;;;;5072316;28;20183;-60
2021/06/28 08:30:43;;;;;;;9.17;8.27;;;28.80;1.00;;;;;;5071563;28;20227;-61
2021/06/28 08:33:09;;;;;;;9.17;8.37;;;28.80;1.00;;;;;;5071817;28;20194;-58
2021/06/28 08:35:35;;;;;;;8.67;7.87;;;28.80;1.00;;;;;;5071632;28;20188;-60
2021/06/28 08:38:02;;;;;;;8.50;7.90;;;28.80;1.00;;;;;;5071574;28;20586;-60
2021/06/28 08:40:28;;;;;;;8.20;7.60;;;28.80;1.00;;;;;;5071274;28;20246;-59
2021/06/28 08:42:53;;;;;;;8.73;8.13;;;28.80;1.00;;;;;;5069847;28;20484;-60
2021/06/28 08:45:22;;;;;;;7.97;7.30;;;28.90;1.00;;;;;;5071771;28;20179;-59
2021/06/28 08:47:48;;;;;;;8.97;8.37;;;29.00;1.00;;;;;;5071187;28;20219;-61
2021/06/28 08:50:13;;;;;;;8.40;7.70;;;29.30;1.00;;;;;;5071594;28;20446;-60
2021/06/28 08:52:41;;;;;;;7.63;6.80;;;29.60;1.00;;;;;;5071829;28;20191;-60
2021/06/28 08:55:08;;;;;;;8.50;7.80;;;29.80;1.00;;;;;;5071235;28;20635;-58
2021/06/28 08:57:35;;;;;;;8.23;7.63;;;30.00;1.00;;;;;;5071657;28;20469;-59
2021/06/28 09:00:01;;;;;;;8.10;7.43;;;29.80;1.00;;;;;;5071408;28;20441;-58
2021/06/28 09:02:26;;;;;;;7.67;7.07;;;30.10;1.00;;;;;;5071410;28;20532;-60
2021/06/28 09:04:57;;;;;;;9.30;8.60;;;30.40;1.00;;;;;;5071056;28;20541;-60
2021/06/28 09:07:22;;;;;;;8.10;7.53;;;30.40;1.00;;;;;;5071405;28;20199;-58
2021/06/28 09:09:48;;;;;;;9.23;8.53;;;30.30;1.00;;;;;;5071531;28;20437;-59
2021/06/28 09:12:15;;;;;;;8.13;7.43;;;30.20;1.00;;;;;;5071334;28;20184;-59
2021/06/28 09:14:48;;;;;;;7.90;7.30;;;30.30;1.00;;;;;;5071358;28;20176;-60
2021/06/28 09:17:37;;;;;;;8.30;7.60;;;30.60;1.00;;;;;;5071404;28;20416;-59
2021/06/28 09:20:13;;;;;;;7.50;6.90;;;30.80;1.00;;;;;;5070989;28;20803;-61
2021/06/28 09:22:40;;;;;;;7.23;6.63;;;31.00;1.00;;;;;;5071223;28;21009;-60
2021/06/28 09:25:08;;;;;;;8.10;7.50;;;30.80;1.00;;;;;;5069837;28;20438;-59
2021/06/28 09:27:44;;;;;;;6.90;6.40;;;30.60;1.00;;;;;;5071055;28;21012;-60
2021/06/28 09:30:20;;;;;;;6.60;6.20;;;30.70;1.00;;;;;;5067252;28;20475;-60
2021/06/28 09:32:57;;;;;;;6.73;6.23;;;30.90;1.00;;;;;;5070852;28;20521;-59
2021/06/28 09:35:35;;;;;;;6.73;6.23;;;31.00;1.00;;;;;;5070968;28;20441;-59
2021/06/28 09:38:07;;;;;;;6.47;6.03;;;30.80;1.00;;;;;;5069883;28;20445;-61
2021/06/28 09:40:35;;;;;;;6.50;6.00;;;30.90;1.00;;;;;;5070856;28;20433;-59
2021/06/28 09:43:24;;;;;;;8.60;7.90;;;30.70;1.00;;;;;;5069740;28;20858;-60
2021/06/28 09:45:54;;;;;;;7.07;6.57;;;30.70;1.00;;;;;;5071107;28;20459;-61
2021/06/28 09:48:30;;;;;;;6.70;6.23;;;30.80;1.00;;;;;;5071127;28;20789;-59
2021/06/28 09:51:22;;;;;;;6.87;6.37;;;30.80;1.00;;;;;;5070690;28;20433;-58
2021/06/28 09:53:54;;;;;;;7.30;6.80;;;31.20;1.00;;;;;;5070955;28;20994;-59
2021/06/28 09:56:34;;;;;;;6.87;6.40;;;31.50;1.00;;;;;;5069778;28;20521;-62
2021/06/28 09:59:19;;;;;;;6.43;6.03;;;31.50;1.00;;;;;;5068229;28;20836;-62
2021/06/28 10:01:46;;;;;;;7.07;6.57;;;31.60;1.00;;;;;;5070779;28;20545;-60
2021/06/28 10:04:36;;;;;;;6.50;6.10;;;31.50;1.00;;;;;;5069370;28;20434;-60
2021/06/28 10:07:20;;;;;;;6.17;5.77;;;31.30;1.00;;;;;;5070805;28;20461;-59
2021/06/28 10:10:03;;;;;;;7.10;6.60;;;31.30;1.00;;;;;;5069555;28;20412;-59
2021/06/28 10:12:29;;;;;;;7.70;7.20;;;31.40;1.00;;;;;;5071105;28;20993;-58
2021/06/28 10:14:55;;;;;;;9.40;8.50;;;31.40;1.00;;;;;;5070557;28;20529;-60
2021/06/28 10:17:20;;;;;;;6.90;6.40;;;31.60;1.00;;;;;;5070716;28;20202;-61
2021/06/28 10:19:46;;;;;;;6.80;6.30;;;31.90;1.00;;;;;;5070428;28;20421;-60
2021/06/28 10:22:12;;;;;;;6.50;6.10;;;32.20;1.00;;;;;;5070664;28;20183;-59
2021/06/28 10:24:37;;;;;;;6.73;6.23;;;32.20;1.00;;;;;;5071390;28;20616;-61
2021/06/28 10:27:05;;;;;;;6.67;6.20;;;31.80;1.00;;;;;;5074960;28;20199;-60
2021/06/28 10:29:34;;;;;;;7.30;6.80;;;31.60;1.00;;;;;;5074610;28;20207;-59
2021/06/28 10:32:08;;;;;;;7.30;6.80;;;31.70;1.00;;;;;;5074555;28;20449;-60
2021/06/28 10:34:34;;;;;;;6.53;6.00;;;31.80;1.00;;;;;;5074329;28;20497;-61
2021/06/28 10:37:02;;;;;;;6.60;6.20;;;31.50;1.00;;;;;;5074159;28;20568;-61
2021/06/28 10:39:32;;;;;;;6.83;6.23;;;31.50;1.00;;;;;;5074265;28;20444;-59
2021/06/28 10:42:02;;;;;;;6.83;6.33;;;31.80;1.00;;;;;;5074037;28;20925;-59
2021/06/28 10:44:50;;;;;;;6.67;6.17;;;31.70;1.00;;;;;;5074168;28;21038;-60
2021/06/28 10:47:15;;;;;;;6.70;6.20;;;31.80;1.00;;;;;;5074097;28;21000;-59
2021/06/28 10:49:46;;;;;;;6.13;5.73;;;32.10;1.00;;;;;;5074297;28;20453;-59
2021/06/28 10:52:32;;;;;;;5.97;5.37;;;32.20;1.00;;;;;;5072012;28;20183;-60
2021/06/28 10:54:58;;;;;;;6.10;5.60;;;32.40;1.00;;;;;;5072144;28;20445;-59
2021/06/28 10:57:38;;;;;;;7.23;6.73;;;32.50;1.00;;;;;;5074162;28;20929;-59
2021/06/28 11:00:04;;;;;;;6.13;5.53;;;32.60;1.00;;;;;;5073611;28;20210;-59
2021/06/28 11:02:37;;;;;;;5.83;5.40;;;32.50;1.00;;;;;;5073936;28;20468;-59
2021/06/28 11:05:05;;;;;;;6.00;5.50;;;32.50;1.00;;;;;;5073526;28;20441;-60
2021/06/28 11:07:48;;;;;;;6.20;5.70;;;32.60;1.00;;;;;;5073704;28;20477;-59
2021/06/28 11:10:37;;;;;;;5.93;5.43;;;32.70;1.00;;;;;;5073534;28;20436;-60
2021/06/28 11:13:35;;;;;;;6.00;5.60;;;32.70;1.00;;;;;;5073353;28;20468;-59
2021/06/28 11:16:29;;;;;;;6.00;5.60;;;32.80;1.00;;;;;;5071772;28;20430;-61
2021/06/28 11:18:55;;;;;;;6.13;5.63;;;33.00;1.00;;;;;;5073444;28;20915;-61
2021/06/28 11:25:08;;;;;;;5.43;5.00;;;32.80;1.00;;;;;;5046724;28;20191;-60
2021/06/28 11:28:07;;;;;;;5.50;5.10;;;33.00;1.00;;;;;;5073219;28;20468;-61
2021/06/28 11:30:37;;;;;;;6.03;5.63;;;33.10;1.00;;;;;;5072958;28;20470;-60
2021/06/28 11:33:05;;;;;;;5.97;5.57;;;33.30;1.00;;;;;;5071869;28;20468;-60
2021/06/28 11:35:37;;;;;;;5.20;4.70;;;33.70;1.00;;;;;;5073428;28;20420;-59
2021/06/28 11:38:22;;;;;;;5.60;5.10;;;32.70;1.00;;;;;;5073077;28;20430;-60
2021/06/28 11:40:51;;;;;;;5.33;4.93;;;33.60;1.00;;;;;;5073439;28;20438;-59
2021/06/28 11:44:00;;;;;;;6.20;5.57;;;33.50;1.00;;;;;;5072953;28;20433;-60
2021/06/28 11:46:28;;;;;;;5.67;5.27;;;33.40;1.00;;;;;;5010550;28;20535;-60
2021/06/28 11:48:53;;;;;;;92.77;21.23;;;33.50;1.00;;;;;;5063896;28;20452;-60
2021/06/28 11:51:41;;;;;;;5.50;5.00;;;33.60;1.00;;;;;;5072454;28;20934;-60
2021/06/28 11:54:10;;;;;;;6.80;5.23;;;33.30;1.00;;;;;;5071267;28;20328;-60
2021/06/28 11:57:01;;;;;;;5.30;4.47;;;33.40;1.00;;;;;;5072706;28;20536;-59
2021/06/28 11:59:31;;;;;;;5.53;5.13;;;33.90;1.00;;;;;;5071751;28;20437;-59
2021/06/28 12:02:04;;;;;;;6.03;5.63;;;34.10;1.00;;;;;;5072818;28;20464;-59
2021/06/28 12:04:34;;;;;;;5.50;5.10;;;34.20;1.00;;;;;;5072523;28;20431;-60
2021/06/28 12:07:00;;;;;;;5.63;5.23;;;34.20;1.00;;;;;;5072717;28;20954;-60
2021/06/28 12:09:28;;;;;;;6.70;4.80;;;33.80;1.00;;;;;;5072312;28;20429;-58
2021/06/28 12:11:57;;;;;;;5.33;5.03;;;33.50;1.00;;;;;;5072603;28;20430;-60
2021/06/28 12:14:35;;;;;;;5.87;5.40;;;33.50;1.00;;;;;;5072001;28;20452;-59
2021/06/28 12:17:08;;;;;;;6.13;5.73;;;33.50;1.00;;;;;;5070217;28;20456;-60
2021/06/28 12:19:35;;;;;;;6.00;5.60;;;33.80;1.00;;;;;;5072504;28;20449;-60
2021/06/28 12:22:12;;;;;;;6.20;5.80;;;34.10;1.00;;;;;;5073111;28;20454;-61
2021/06/28 12:24:37;;;;;;;6.70;6.20;;;34.00;1.00;;;;;;5071682;28;20445;-60
2021/06/28 12:27:12;;;;;;;6.73;6.23;;;34.20;1.00;;;;;;5072595;28;20479;-60
2021/06/28 12:29:45;;;;;;;5.73;5.33;;;34.40;1.00;;;;;;5072119;28;20257;-62
2021/06/28 12:32:25;;;;;;;6.20;5.60;;;34.30;1.00;;;;;;5072243;28;20990;-61
2021/06/28 12:35:06;;;;;;;5.87;5.47;;;34.00;1.00;;;;;;5070306;28;20443;-60
2021/06/28 12:37:35;;;;;;;5.90;5.50;;;34.10;1.00;;;;;;5072296;28;20438;-60
2021/06/28 12:40:11;;;;;;;6.07;5.57;;;34.40;1.00;;;;;;5072685;28;20503;-60
2021/06/28 12:42:51;;;;;;;6.77;6.27;;;34.40;1.00;;;;;;5072410;28;20437;-60
2021/06/28 12:45:20;;;;;;;6.60;6.00;;;34.20;1.00;;;;;;5069836;28;20412;-59
2021/06/28 12:47:51;;;;;;;6.80;6.20;;;33.90;1.00;;;;;;5070137;28;20461;-58
2021/06/28 12:50:22;;;;;;;6.30;5.80;;;33.90;1.00;;;;;;5072017;28;20931;-59
2021/06/28 12:52:48;;;;;;;6.57;6.07;;;34.00;1.00;;;;;;5070993;28;20492;-59
2021/06/28 12:55:21;;;;;;;6.43;6.03;;;34.00;1.00;;;;;;5070586;28;20854;-60
2021/06/28 12:57:59;;;;;;;6.77;6.23;;;33.90;1.00;;;;;;5069118;28;20711;-60
2021/06/28 13:00:27;;;;;;;6.17;5.67;;;33.60;1.00;;;;;;5069274;28;20433;-62
2021/06/28 13:02:58;;;;;;;6.33;5.90;;;33.20;1.00;;;;;;5070681;28;20848;-60
2021/06/28 13:05:35;;;;;;;6.90;6.30;;;33.30;1.00;;;;;;5070515;28;20416;-61